PWSweather.com
Personal Weather Stations
Station Observations

PoschiavoCH

Lat: 46.31962499999999, Lon: 10.066551000000004

Elevation: 3517

Station Type: WH 1080

http://www.meteoposchiavo.com

High Low Average
Temperature 88.0°F31.1°C 64.0°F17.8°C 74.4°F23.6°C
Dew Point 69.1°F20.6°C 60.4°F15.8°C 64.0°F17.8°C
Winds 3.5 mph 5.6 kmh Calm Calm Calm SSECalm SSE
Wind Gusts 3.5 mph5.6 kmh -- 1.0 mph1.6 kmh
Humidity 90% 47% 72%
Pressure 26.78 in906.9 mb 26.70 in904.2 mb -
Precipitation 0.00 in0.0 mm - -
Hour Temp Dew Point Humidity Winds Wind Gusts Pressure Precip Precip Rate Daily Precip Total
12:00 AM 68.0°F20.0°C 63.0°F17.2°C 84% Calm Calm -- 26.77 in906.5 mb - 0.00 in0.0 mm 0.00 in0.0 mm
12:10 AM 68.0°F20.0°C 63.3°F17.4°C 85% Calm Calm -- 26.77 in906.5 mb - 0.00 in0.0 mm 0.00 in0.0 mm
12:15 AM 68.0°F20.0°C 63.3°F17.4°C 85% Calm Calm -- 26.77 in906.5 mb - 0.00 in0.0 mm 0.00 in0.0 mm
12:20 AM 68.0°F20.0°C 63.0°F17.2°C 84% Calm Calm -- 26.77 in906.5 mb - 0.00 in0.0 mm 0.00 in0.0 mm
12:25 AM 68.0°F20.0°C 63.0°F17.2°C 84% Calm Calm -- 26.76 in906.2 mb - 0.00 in0.0 mm 0.00 in0.0 mm
12:30 AM 68.0°F20.0°C 63.3°F17.4°C 85% Calm Calm -- 26.77 in906.5 mb - 0.00 in0.0 mm 0.00 in0.0 mm
12:35 AM 68.0°F20.0°C 63.3°F17.4°C 85% Calm Calm -- 26.77 in906.5 mb - 0.00 in0.0 mm 0.00 in0.0 mm
12:40 AM 68.0°F20.0°C 63.3°F17.4°C 85% Calm Calm -- 26.77 in906.5 mb - 0.00 in0.0 mm 0.00 in0.0 mm
12:45 AM 68.0°F20.0°C 63.3°F17.4°C 85% Calm Calm -- 26.76 in906.2 mb - 0.00 in0.0 mm 0.00 in0.0 mm
12:50 AM 68.0°F20.0°C 63.3°F17.4°C 85% Calm Calm -- 26.77 in906.5 mb - 0.00 in0.0 mm 0.00 in0.0 mm
12:55 AM 68.0°F20.0°C 61.9°F16.6°C 81% Calm Calm -- 26.76 in906.2 mb - 0.00 in0.0 mm 0.00 in0.0 mm
01:00 AM 68.0°F20.0°C 62.6°F17.0°C 83% Calm Calm -- 26.76 in906.2 mb - 0.00 in0.0 mm 0.00 in0.0 mm
01:10 AM 68.0°F20.0°C 62.3°F16.8°C 82% Calm Calm -- 26.75 in905.9 mb - 0.00 in0.0 mm 0.00 in0.0 mm
01:15 AM 68.0°F20.0°C 62.6°F17.0°C 83% Calm Calm -- 26.75 in905.9 mb - 0.00 in0.0 mm 0.00 in0.0 mm
01:20 AM 68.0°F20.0°C 62.6°F17.0°C 83% Calm Calm -- 26.75 in905.9 mb - 0.00 in0.0 mm 0.00 in0.0 mm
01:25 AM 68.0°F20.0°C 63.7°F17.6°C 86% Calm Calm -- 26.76 in906.2 mb - 0.00 in0.0 mm 0.00 in0.0 mm
01:30 AM 67.0°F19.4°C 62.3°F16.8°C 85% Calm Calm -- 26.76 in906.2 mb - 0.00 in0.0 mm 0.00 in0.0 mm
01:35 AM 67.0°F19.4°C 62.7°F17.1°C 86% Calm Calm -- 26.76 in906.2 mb - 0.00 in0.0 mm 0.00 in0.0 mm
01:40 AM 67.0°F19.4°C 62.7°F17.1°C 86% Calm Calm -- 26.76 in906.2 mb - 0.00 in0.0 mm 0.00 in0.0 mm
01:45 AM 66.0°F18.9°C 61.7°F16.5°C 86% Calm Calm -- 26.76 in906.2 mb - 0.00 in0.0 mm 0.00 in0.0 mm
01:50 AM 66.0°F18.9°C 61.4°F16.3°C 85% Calm Calm -- 26.76 in906.2 mb - 0.00 in0.0 mm 0.00 in0.0 mm
01:55 AM 66.0°F18.9°C 61.4°F16.3°C 85% Calm Calm -- 26.76 in906.2 mb - 0.00 in0.0 mm 0.00 in0.0 mm
02:00 AM 66.0°F18.9°C 61.4°F16.3°C 85% Calm Calm -- 26.76 in906.2 mb - 0.00 in0.0 mm 0.00 in0.0 mm
02:10 AM 66.0°F18.9°C 62.0°F16.7°C 87% Calm Calm -- 26.76 in906.2 mb - 0.00 in0.0 mm 0.00 in0.0 mm
02:15 AM 65.0°F18.3°C 61.4°F16.3°C 88% Calm Calm -- 26.76 in906.2 mb - 0.00 in0.0 mm 0.00 in0.0 mm
02:20 AM 65.0°F18.3°C 61.4°F16.3°C 88% Calm Calm -- 26.75 in905.9 mb - 0.00 in0.0 mm 0.00 in0.0 mm
02:25 AM 65.0°F18.3°C 61.0°F16.1°C 87% Calm Calm -- 26.76 in906.2 mb - 0.00 in0.0 mm 0.00 in0.0 mm
02:30 AM 65.0°F18.3°C 61.0°F16.1°C 87% Calm Calm -- 26.76 in906.2 mb - 0.00 in0.0 mm 0.00 in0.0 mm
02:35 AM 65.0°F18.3°C 61.0°F16.1°C 87% Calm Calm -- 26.77 in906.5 mb - 0.00 in0.0 mm 0.00 in0.0 mm
02:40 AM 65.0°F18.3°C 61.0°F16.1°C 87% Calm Calm -- 26.76 in906.2 mb - 0.00 in0.0 mm 0.00 in0.0 mm
02:45 AM 65.0°F18.3°C 61.0°F16.1°C 87% Calm Calm -- 26.76 in906.2 mb - 0.00 in0.0 mm 0.00 in0.0 mm
02:50 AM 65.0°F18.3°C 61.7°F16.5°C 89% Calm Calm -- 26.76 in906.2 mb - 0.00 in0.0 mm 0.00 in0.0 mm
02:55 AM 64.0°F17.8°C 60.4°F15.8°C 88% Calm Calm -- 26.76 in906.2 mb - 0.00 in0.0 mm 0.00 in0.0 mm
03:00 AM 64.0°F17.8°C 60.4°F15.8°C 88% Calm Calm -- 26.75 in905.9 mb - 0.00 in0.0 mm 0.00 in0.0 mm
03:10 AM 64.0°F17.8°C 60.7°F15.9°C 89% Calm Calm -- 26.76 in906.2 mb - 0.00 in0.0 mm 0.00 in0.0 mm
03:15 AM 64.0°F17.8°C 61.0°F16.1°C 90% Calm Calm -- 26.75 in905.9 mb - 0.00 in0.0 mm 0.00 in0.0 mm
03:20 AM 64.0°F17.8°C 60.4°F15.8°C 88% Calm Calm -- 26.76 in906.2 mb - 0.00 in0.0 mm 0.00 in0.0 mm
03:25 AM 65.0°F18.3°C 61.4°F16.3°C 88% Calm Calm -- 26.76 in906.2 mb - 0.00 in0.0 mm 0.00 in0.0 mm
03:30 AM 65.0°F18.3°C 61.7°F16.5°C 89% Calm Calm -- 26.75 in905.9 mb - 0.00 in0.0 mm 0.00 in0.0 mm
03:35 AM 65.0°F18.3°C 61.4°F16.3°C 88% Calm Calm -- 26.76 in906.2 mb - 0.00 in0.0 mm 0.00 in0.0 mm
03:40 AM 65.0°F18.3°C 61.4°F16.3°C 88% Calm Calm -- 26.76 in906.2 mb - 0.00 in0.0 mm 0.00 in0.0 mm
03:45 AM 65.0°F18.3°C 61.4°F16.3°C 88% Calm Calm -- 26.76 in906.2 mb - 0.00 in0.0 mm 0.00 in0.0 mm
03:50 AM 65.0°F18.3°C 61.7°F16.5°C 89% Calm Calm -- 26.75 in905.9 mb - 0.00 in0.0 mm 0.00 in0.0 mm
03:55 AM 65.0°F18.3°C 61.4°F16.3°C 88% Calm Calm -- 26.76 in906.2 mb - 0.00 in0.0 mm 0.00 in0.0 mm
04:00 AM 65.0°F18.3°C 61.0°F16.1°C 87% Calm Calm -- 26.76 in906.2 mb - 0.00 in0.0 mm 0.00 in0.0 mm
04:10 AM 66.0°F18.9°C 61.7°F16.5°C 86% Calm Calm -- 26.77 in906.5 mb - 0.00 in0.0 mm 0.00 in0.0 mm
04:15 AM 66.0°F18.9°C 61.7°F16.5°C 86% Calm Calm -- 26.77 in906.5 mb - 0.00 in0.0 mm 0.00 in0.0 mm
04:20 AM 66.0°F18.9°C 61.7°F16.5°C 86% Calm Calm -- 26.76 in906.2 mb - 0.00 in0.0 mm 0.00 in0.0 mm
04:25 AM 66.0°F18.9°C 61.0°F16.1°C 84% Calm Calm -- 26.76 in906.2 mb - 0.00 in0.0 mm 0.00 in0.0 mm
04:30 AM 66.0°F18.9°C 61.7°F16.5°C 86% Calm Calm -- 26.77 in906.5 mb - 0.00 in0.0 mm 0.00 in0.0 mm
04:35 AM 66.0°F18.9°C 62.0°F16.7°C 87% Calm Calm -- 26.76 in906.2 mb - 0.00 in0.0 mm 0.00 in0.0 mm
04:40 AM 66.0°F18.9°C 61.7°F16.5°C 86% Calm Calm -- 26.76 in906.2 mb - 0.00 in0.0 mm 0.00 in0.0 mm
04:45 AM 66.0°F18.9°C 62.0°F16.7°C 87% Calm Calm -- 26.76 in906.2 mb - 0.00 in0.0 mm 0.00 in0.0 mm
04:50 AM 66.0°F18.9°C 62.0°F16.7°C 87% Calm Calm -- 26.76 in906.2 mb - 0.00 in0.0 mm 0.00 in0.0 mm
04:55 AM 66.0°F18.9°C 62.0°F16.7°C 87% Calm Calm -- 26.76 in906.2 mb - 0.00 in0.0 mm 0.00 in0.0 mm
05:00 AM 66.0°F18.9°C 62.3°F16.8°C 88% Calm Calm -- 26.76 in906.2 mb - 0.00 in0.0 mm 0.00 in0.0 mm
05:10 AM 66.0°F18.9°C 62.3°F16.8°C 88% Calm Calm -- 26.77 in906.5 mb - 0.00 in0.0 mm 0.00 in0.0 mm
05:15 AM 65.0°F18.3°C 61.0°F16.1°C 87% Calm Calm -- 26.77 in906.5 mb - 0.00 in0.0 mm 0.00 in0.0 mm
05:20 AM 65.0°F18.3°C 61.0°F16.1°C 87% Calm Calm -- 26.77 in906.5 mb - 0.00 in0.0 mm 0.00 in0.0 mm
05:25 AM 65.0°F18.3°C 61.0°F16.1°C 87% Calm Calm -- 26.77 in906.5 mb - 0.00 in0.0 mm 0.00 in0.0 mm
05:30 AM 65.0°F18.3°C 61.4°F16.3°C 88% Calm Calm -- 26.77 in906.5 mb - 0.00 in0.0 mm 0.00 in0.0 mm
05:35 AM 65.0°F18.3°C 61.4°F16.3°C 88% Calm Calm -- 26.77 in906.5 mb - 0.00 in0.0 mm 0.00 in0.0 mm
05:40 AM 65.0°F18.3°C 61.4°F16.3°C 88% Calm Calm -- 26.76 in906.2 mb - 0.00 in0.0 mm 0.00 in0.0 mm
05:45 AM 64.0°F17.8°C 60.4°F15.8°C 88% Calm Calm -- 26.77 in906.5 mb - 0.00 in0.0 mm 0.00 in0.0 mm
05:50 AM 64.0°F17.8°C 60.7°F15.9°C 89% Calm Calm -- 26.77 in906.5 mb - 0.00 in0.0 mm 0.00 in0.0 mm
05:55 AM 64.9°F18.3°C 61.6°F16.4°C 89% Calm Calm -- 26.77 in906.5 mb - 0.00 in0.0 mm 0.00 in0.0 mm
06:00 AM 64.0°F17.8°C 60.7°F15.9°C 89% Calm Calm -- 26.77 in906.5 mb - 0.00 in0.0 mm 0.00 in0.0 mm
06:10 AM 64.0°F17.8°C 60.7°F15.9°C 89% Calm Calm -- 26.77 in906.5 mb - 0.00 in0.0 mm 0.00 in0.0 mm
06:15 AM 64.0°F17.8°C 60.7°F15.9°C 89% Calm Calm -- 26.77 in906.5 mb - 0.00 in0.0 mm 0.00 in0.0 mm
06:20 AM 64.0°F17.8°C 60.7°F15.9°C 89% Calm Calm -- 26.78 in906.9 mb - 0.00 in0.0 mm 0.00 in0.0 mm
06:25 AM 64.0°F17.8°C 60.4°F15.8°C 88% Calm Calm -- 26.78 in906.9 mb - 0.00 in0.0 mm 0.00 in0.0 mm
06:30 AM 64.0°F17.8°C 60.4°F15.8°C 88% Calm Calm -- 26.78 in906.9 mb - 0.00 in0.0 mm 0.00 in0.0 mm
06:35 AM 64.0°F17.8°C 60.7°F15.9°C 89% Calm Calm -- 26.78 in906.9 mb - 0.00 in0.0 mm 0.00 in0.0 mm
06:40 AM 64.0°F17.8°C 60.4°F15.8°C 88% Calm Calm -- 26.78 in906.9 mb - 0.00 in0.0 mm 0.00 in0.0 mm
06:45 AM 64.0°F17.8°C 60.4°F15.8°C 88% Calm Calm -- 26.77 in906.5 mb - 0.00 in0.0 mm 0.00 in0.0 mm
06:50 AM 64.0°F17.8°C 60.7°F15.9°C 89% Calm Calm -- 26.77 in906.5 mb - 0.00 in0.0 mm 0.00 in0.0 mm
06:55 AM 64.0°F17.8°C 61.0°F16.1°C 90% Calm Calm -- 26.78 in906.9 mb - 0.00 in0.0 mm 0.00 in0.0 mm
07:00 AM 64.0°F17.8°C 61.0°F16.1°C 90% Calm Calm -- 26.78 in906.9 mb - 0.00 in0.0 mm 0.00 in0.0 mm
07:10 AM 65.0°F18.3°C 62.0°F16.7°C 90% Calm Calm -- 26.78 in906.9 mb - 0.00 in0.0 mm 0.00 in0.0 mm
07:15 AM 65.0°F18.3°C 61.0°F16.1°C 87% Calm Calm -- 26.78 in906.9 mb - 0.00 in0.0 mm 0.00 in0.0 mm
07:20 AM 65.0°F18.3°C 62.0°F16.7°C 90% Calm Calm -- 26.78 in906.9 mb - 0.00 in0.0 mm 0.00 in0.0 mm
07:25 AM 65.0°F18.3°C 61.4°F16.3°C 88% Calm Calm -- 26.78 in906.9 mb - 0.00 in0.0 mm 0.00 in0.0 mm
07:30 AM 65.4°F18.6°C 61.8°F16.6°C 88% Calm Calm -- 26.78 in906.9 mb - 0.00 in0.0 mm 0.00 in0.0 mm
07:35 AM 66.0°F18.9°C 62.0°F16.7°C 87% Calm Calm -- 26.78 in906.9 mb - 0.00 in0.0 mm 0.00 in0.0 mm
07:40 AM 67.0°F19.4°C 61.7°F16.5°C 83% Calm Calm -- 26.78 in906.9 mb - 0.00 in0.0 mm 0.00 in0.0 mm
07:45 AM 71.0°F21.7°C 62.7°F17.1°C 75% Calm Calm -- 26.78 in906.9 mb - 0.00 in0.0 mm 0.00 in0.0 mm
07:50 AM 73.0°F22.8°C 62.2°F16.8°C 69% Calm Calm -- 26.78 in906.9 mb - 0.00 in0.0 mm 0.00 in0.0 mm
07:55 AM 77.0°F25.0°C 63.4°F17.4°C 63% Calm Calm -- 26.76 in906.2 mb - 0.00 in0.0 mm 0.00 in0.0 mm
08:00 AM 79.3°F26.3°C 64.2°F17.9°C 60% Calm Calm -- 26.77 in906.5 mb - 0.00 in0.0 mm 0.00 in0.0 mm
08:10 AM 81.0°F27.2°C 63.8°F17.7°C 56% Calm Calm -- 26.77 in906.5 mb - 0.00 in0.0 mm 0.00 in0.0 mm
08:15 AM 82.0°F27.8°C 63.2°F17.3°C 53% Calm Calm -- 26.78 in906.9 mb - 0.00 in0.0 mm 0.00 in0.0 mm
08:20 AM 82.0°F27.8°C 64.2°F17.9°C 55% Calm Calm -- 26.77 in906.5 mb - 0.00 in0.0 mm 0.00 in0.0 mm
08:25 AM 82.0°F27.8°C 64.8°F18.2°C 56% Calm Calm -- 26.77 in906.5 mb - 0.00 in0.0 mm 0.00 in0.0 mm
08:30 AM 84.0°F28.9°C 65.0°F18.3°C 53% Calm Calm -- 26.77 in906.5 mb - 0.00 in0.0 mm 0.00 in0.0 mm
08:35 AM 84.0°F28.9°C 64.5°F18.1°C 52% Calm Calm -- 26.77 in906.5 mb - 0.00 in0.0 mm 0.00 in0.0 mm
08:40 AM 84.0°F28.9°C 63.4°F17.4°C 50% Calm Calm -- 26.76 in906.2 mb - 0.00 in0.0 mm 0.00 in0.0 mm
08:45 AM 83.0°F28.3°C 65.7°F18.7°C 56% Calm Calm -- 26.76 in906.2 mb - 0.00 in0.0 mm 0.00 in0.0 mm
08:50 AM 83.0°F28.3°C 64.6°F18.1°C 54% Calm Calm 1.2 mph1.9 kmh 26.76 in906.2 mb - 0.00 in0.0 mm 0.00 in0.0 mm
08:55 AM 81.0°F27.2°C 63.3°F17.4°C 55% Calm Calm -- 26.77 in906.5 mb - 0.00 in0.0 mm 0.00 in0.0 mm
09:00 AM 79.0°F26.1°C 63.0°F17.2°C 58% Calm Calm -- 26.76 in906.2 mb - 0.00 in0.0 mm 0.00 in0.0 mm
09:10 AM 79.0°F26.1°C 63.9°F17.7°C 60% Calm Calm -- 26.76 in906.2 mb - 0.00 in0.0 mm 0.00 in0.0 mm
09:15 AM 78.0°F25.6°C 64.4°F18.0°C 63% Calm Calm -- 26.76 in906.2 mb - 0.00 in0.0 mm 0.00 in0.0 mm
09:20 AM 77.0°F25.0°C 63.9°F17.7°C 64% Calm Calm -- 26.76 in906.2 mb - 0.00 in0.0 mm 0.00 in0.0 mm
09:25 AM 79.0°F26.1°C 64.9°F18.3°C 62% Calm Calm 1.2 mph1.9 kmh 26.76 in906.2 mb - 0.00 in0.0 mm 0.00 in0.0 mm
09:30 AM 78.0°F25.6°C 64.8°F18.2°C 64% Calm Calm 1.2 mph1.9 kmh 26.76 in906.2 mb - 0.00 in0.0 mm 0.00 in0.0 mm
09:35 AM 77.1°F25.1°C 63.5°F17.5°C 63% Calm Calm 1.2 mph1.9 kmh 26.76 in906.2 mb - 0.00 in0.0 mm 0.00 in0.0 mm
09:40 AM 77.1°F25.1°C 63.6°F17.6°C 63% Calm Calm 1.2 mph1.9 kmh 26.76 in906.2 mb - 0.00 in0.0 mm 0.00 in0.0 mm
09:45 AM 78.0°F25.6°C 64.4°F18.0°C 63% Calm Calm 1.2 mph1.9 kmh 26.76 in906.2 mb - 0.00 in0.0 mm 0.00 in0.0 mm
09:50 AM 78.0°F25.6°C 63.5°F17.5°C 61% 1.2 mph SW1.9 kmh SW 1.2 mph1.9 kmh 26.76 in906.2 mb - 0.00 in0.0 mm 0.00 in0.0 mm
09:55 AM 79.0°F26.1°C 63.0°F17.2°C 58% Calm Calm -- 26.76 in906.2 mb - 0.00 in0.0 mm 0.00 in0.0 mm
10:00 AM 80.0°F26.7°C 65.8°F18.8°C 62% Calm Calm -- 26.75 in905.9 mb - 0.00 in0.0 mm 0.00 in0.0 mm
10:10 AM 79.0°F26.1°C 63.9°F17.7°C 60% Calm Calm 1.2 mph1.9 kmh 26.75 in905.9 mb - 0.00 in0.0 mm 0.00 in0.0 mm
10:15 AM 79.0°F26.1°C 63.9°F17.7°C 60% Calm Calm 1.2 mph1.9 kmh 26.75 in905.9 mb - 0.00 in0.0 mm 0.00 in0.0 mm
10:20 AM 80.0°F26.7°C 64.9°F18.3°C 60% 2.3 mph NW3.7 kmh NW 2.3 mph3.7 kmh 26.76 in906.2 mb - 0.00 in0.0 mm 0.00 in0.0 mm
10:25 AM 80.0°F26.7°C 64.4°F18.0°C 59% Calm Calm -- 26.76 in906.2 mb - 0.00 in0.0 mm 0.00 in0.0 mm
10:30 AM 80.0°F26.7°C 63.9°F17.7°C 58% Calm Calm -- 26.75 in905.9 mb - 0.00 in0.0 mm 0.00 in0.0 mm
10:35 AM 81.0°F27.2°C 65.3°F18.5°C 59% 1.2 mph N1.9 kmh N 1.2 mph1.9 kmh 26.75 in905.9 mb - 0.00 in0.0 mm 0.00 in0.0 mm
10:40 AM 81.0°F27.2°C 63.8°F17.7°C 56% Calm Calm 1.2 mph1.9 kmh 26.75 in905.9 mb - 0.00 in0.0 mm 0.00 in0.0 mm
10:45 AM 81.0°F27.2°C 63.3°F17.4°C 55% Calm Calm -- 26.75 in905.9 mb - 0.00 in0.0 mm 0.00 in0.0 mm
10:50 AM 82.0°F27.8°C 64.8°F18.2°C 56% Calm Calm -- 26.75 in905.9 mb - 0.00 in0.0 mm 0.00 in0.0 mm
10:55 AM 81.0°F27.2°C 65.8°F18.8°C 60% Calm Calm -- 26.75 in905.9 mb - 0.00 in0.0 mm 0.00 in0.0 mm
11:00 AM 82.0°F27.8°C 64.8°F18.2°C 56% Calm Calm -- 26.75 in905.9 mb - 0.00 in0.0 mm 0.00 in0.0 mm
11:10 AM 81.0°F27.2°C 65.3°F18.5°C 59% Calm Calm 1.2 mph1.9 kmh 26.75 in905.9 mb - 0.00 in0.0 mm 0.00 in0.0 mm
11:15 AM 81.0°F27.2°C 65.3°F18.5°C 59% Calm Calm 1.2 mph1.9 kmh 26.75 in905.9 mb - 0.00 in0.0 mm 0.00 in0.0 mm
11:20 AM 81.0°F27.2°C 65.3°F18.5°C 59% 1.2 mph WNW1.9 kmh WNW 1.2 mph1.9 kmh 26.75 in905.9 mb - 0.00 in0.0 mm 0.00 in0.0 mm
11:25 AM 80.0°F26.7°C 67.2°F19.6°C 65% 1.2 mph WNW1.9 kmh WNW 2.3 mph3.7 kmh 26.75 in905.9 mb - 0.00 in0.0 mm 0.00 in0.0 mm
11:30 AM 81.0°F27.2°C 67.2°F19.6°C 63% Calm Calm -- 26.74 in905.5 mb - 0.00 in0.0 mm 0.00 in0.0 mm
11:35 AM 81.0°F27.2°C 65.3°F18.5°C 59% Calm Calm -- 26.74 in905.5 mb - 0.00 in0.0 mm 0.00 in0.0 mm
11:40 AM 82.0°F27.8°C 65.8°F18.8°C 58% 2.3 mph NE3.7 kmh NE 2.3 mph3.7 kmh 26.75 in905.9 mb - 0.00 in0.0 mm 0.00 in0.0 mm
11:45 AM 82.0°F27.8°C 64.8°F18.2°C 56% 1.2 mph ENE1.9 kmh ENE 2.3 mph3.7 kmh 26.75 in905.9 mb - 0.00 in0.0 mm 0.00 in0.0 mm
11:50 AM 82.0°F27.8°C 64.2°F17.9°C 55% Calm Calm -- 26.75 in905.9 mb - 0.00 in0.0 mm 0.00 in0.0 mm
11:55 AM 82.0°F27.8°C 66.3°F19.1°C 59% Calm Calm 1.2 mph1.9 kmh 26.75 in905.9 mb - 0.00 in0.0 mm 0.00 in0.0 mm
12:00 PM 82.0°F27.8°C 66.7°F19.3°C 60% Calm Calm -- 26.74 in905.5 mb - 0.00 in0.0 mm 0.00 in0.0 mm
12:10 PM 84.0°F28.9°C 67.1°F19.5°C 57% 2.3 mph WNW3.7 kmh WNW 2.3 mph3.7 kmh 26.75 in905.9 mb - 0.00 in0.0 mm 0.00 in0.0 mm
12:15 PM 84.0°F28.9°C 69.1°F20.6°C 61% 1.2 mph E1.9 kmh E 2.3 mph3.7 kmh 26.75 in905.9 mb - 0.00 in0.0 mm 0.00 in0.0 mm
12:20 PM 82.0°F27.8°C 66.7°F19.3°C 60% 1.2 mph E1.9 kmh E 2.3 mph3.7 kmh 26.75 in905.9 mb - 0.00 in0.0 mm 0.00 in0.0 mm
12:25 PM 82.0°F27.8°C 65.8°F18.8°C 58% 1.2 mph NW1.9 kmh NW 2.3 mph3.7 kmh 26.74 in905.5 mb - 0.00 in0.0 mm 0.00 in0.0 mm
12:30 PM 82.0°F27.8°C 65.8°F18.8°C 58% Calm Calm -- 26.74 in905.5 mb - 0.00 in0.0 mm 0.00 in0.0 mm
12:35 PM 82.0°F27.8°C 67.2°F19.6°C 61% 1.2 mph W1.9 kmh W 1.2 mph1.9 kmh 26.74 in905.5 mb - 0.00 in0.0 mm 0.00 in0.0 mm
12:40 PM 82.0°F27.8°C 65.3°F18.5°C 57% Calm Calm -- 26.73 in905.2 mb - 0.00 in0.0 mm 0.00 in0.0 mm
12:45 PM 82.0°F27.8°C 68.6°F20.3°C 64% 1.2 mph NW1.9 kmh NW 2.3 mph3.7 kmh 26.73 in905.2 mb - 0.00 in0.0 mm 0.00 in0.0 mm
12:50 PM 82.5°F28.1°C 67.7°F19.8°C 61% 1.2 mph NW1.9 kmh NW 2.3 mph3.7 kmh 26.73 in905.2 mb - 0.00 in0.0 mm 0.00 in0.0 mm
12:55 PM 83.0°F28.3°C 67.2°F19.6°C 59% 1.2 mph NW1.9 kmh NW 1.2 mph1.9 kmh 26.73 in905.2 mb - 0.00 in0.0 mm 0.00 in0.0 mm
01:00 PM 84.0°F28.9°C 65.6°F18.7°C 54% Calm Calm 1.2 mph1.9 kmh 26.73 in905.2 mb - 0.00 in0.0 mm 0.00 in0.0 mm
01:10 PM 85.0°F29.4°C 67.5°F19.7°C 56% 1.2 mph NW1.9 kmh NW 2.3 mph3.7 kmh 26.73 in905.2 mb - 0.00 in0.0 mm 0.00 in0.0 mm
01:15 PM 86.0°F30.0°C 66.9°F19.4°C 53% 1.2 mph W1.9 kmh W 1.2 mph1.9 kmh 26.73 in905.2 mb - 0.00 in0.0 mm 0.00 in0.0 mm
01:20 PM 86.0°F30.0°C 65.2°F18.4°C 50% 1.2 mph E1.9 kmh E 1.2 mph1.9 kmh 26.73 in905.2 mb - 0.00 in0.0 mm 0.00 in0.0 mm
01:25 PM 86.1°F30.1°C 65.3°F18.5°C 50% 1.2 mph E1.9 kmh E 1.2 mph1.9 kmh 26.73 in905.2 mb - 0.00 in0.0 mm 0.00 in0.0 mm
01:30 PM 87.0°F30.6°C 64.9°F18.3°C 48% 1.2 mph NE1.9 kmh NE 1.2 mph1.9 kmh 26.73 in905.2 mb - 0.00 in0.0 mm 0.00 in0.0 mm
01:35 PM 86.0°F30.0°C 63.4°F17.4°C 47% Calm Calm 1.2 mph1.9 kmh 26.72 in904.8 mb - 0.00 in0.0 mm 0.00 in0.0 mm
01:40 PM 88.0°F31.1°C 67.6°F19.8°C 51% 3.5 mph NW5.6 kmh NW 3.5 mph5.6 kmh 26.73 in905.2 mb - 0.00 in0.0 mm 0.00 in0.0 mm
01:45 PM 86.0°F30.0°C 66.9°F19.4°C 53% 1.2 mph WNW1.9 kmh WNW 2.3 mph3.7 kmh 26.73 in905.2 mb - 0.00 in0.0 mm 0.00 in0.0 mm
01:50 PM 85.0°F29.4°C 65.4°F18.6°C 52% 1.2 mph ESE1.9 kmh ESE 1.2 mph1.9 kmh 26.73 in905.2 mb - 0.00 in0.0 mm 0.00 in0.0 mm
01:55 PM 85.5°F29.7°C 65.8°F18.8°C 52% Calm Calm 1.2 mph1.9 kmh 26.73 in905.2 mb - 0.00 in0.0 mm 0.00 in0.0 mm
02:00 PM 86.0°F30.0°C 66.3°F19.1°C 52% Calm Calm 1.2 mph1.9 kmh 26.72 in904.8 mb - 0.00 in0.0 mm 0.00 in0.0 mm
02:10 PM 84.0°F28.9°C 66.1°F18.9°C 55% 1.2 mph NW1.9 kmh NW 2.3 mph3.7 kmh 26.72 in904.8 mb - 0.00 in0.0 mm 0.00 in0.0 mm
02:15 PM 84.0°F28.9°C 67.1°F19.5°C 57% Calm Calm 1.2 mph1.9 kmh 26.73 in905.2 mb - 0.00 in0.0 mm 0.00 in0.0 mm
02:20 PM 84.0°F28.9°C 66.1°F18.9°C 55% 2.3 mph NW3.7 kmh NW 2.3 mph3.7 kmh 26.73 in905.2 mb - 0.00 in0.0 mm 0.00 in0.0 mm
02:25 PM 84.0°F28.9°C 67.6°F19.8°C 58% Calm Calm 2.3 mph3.7 kmh 26.72 in904.8 mb - 0.00 in0.0 mm 0.00 in0.0 mm
02:30 PM 84.0°F28.9°C 67.6°F19.8°C 58% Calm Calm 2.3 mph3.7 kmh 26.72 in904.8 mb - 0.00 in0.0 mm 0.00 in0.0 mm
02:35 PM 84.0°F28.9°C 67.6°F19.8°C 58% 1.2 mph E1.9 kmh E 1.2 mph1.9 kmh 26.72 in904.8 mb - 0.00 in0.0 mm 0.00 in0.0 mm
02:40 PM 84.0°F28.9°C 66.1°F18.9°C 55% 1.2 mph N1.9 kmh N 2.3 mph3.7 kmh 26.73 in905.2 mb - 0.00 in0.0 mm 0.00 in0.0 mm
02:45 PM 85.0°F29.4°C 66.0°F18.9°C 53% Calm Calm -- 26.72 in904.8 mb - 0.00 in0.0 mm 0.00 in0.0 mm
02:50 PM 86.0°F30.0°C 68.5°F20.3°C 56% 1.2 mph N1.9 kmh N 1.2 mph1.9 kmh 26.73 in905.2 mb - 0.00 in0.0 mm 0.00 in0.0 mm
02:55 PM 85.0°F29.4°C 67.5°F19.7°C 56% 1.2 mph W1.9 kmh W 2.3 mph3.7 kmh 26.72 in904.8 mb - 0.00 in0.0 mm 0.00 in0.0 mm
03:00 PM 84.6°F29.2°C 66.7°F19.3°C 55% 1.2 mph WNW1.9 kmh WNW 2.3 mph3.7 kmh 26.72 in904.8 mb - 0.00 in0.0 mm 0.00 in0.0 mm
03:10 PM 85.0°F29.4°C 66.5°F19.2°C 54% 1.2 mph NNW1.9 kmh NNW 2.3 mph3.7 kmh 26.72 in904.8 mb - 0.00 in0.0 mm 0.00 in0.0 mm
03:15 PM 84.0°F28.9°C 68.1°F20.1°C 59% 1.2 mph ESE1.9 kmh ESE 2.3 mph3.7 kmh 26.72 in904.8 mb - 0.00 in0.0 mm 0.00 in0.0 mm
03:20 PM 84.0°F28.9°C 65.6°F18.7°C 54% Calm Calm -- 26.72 in904.8 mb - 0.00 in0.0 mm 0.00 in0.0 mm
03:25 PM 86.0°F30.0°C 67.4°F19.7°C 54% 2.3 mph NW3.7 kmh NW 2.3 mph3.7 kmh 26.72 in904.8 mb - 0.00 in0.0 mm 0.00 in0.0 mm
03:30 PM 85.2°F29.6°C 66.2°F19.0°C 53% 1.2 mph NNE1.9 kmh NNE 2.3 mph3.7 kmh 26.72 in904.8 mb - 0.00 in0.0 mm 0.00 in0.0 mm
03:35 PM 85.0°F29.4°C 66.0°F18.9°C 53% 1.2 mph NE1.9 kmh NE 1.2 mph1.9 kmh 26.72 in904.8 mb - 0.00 in0.0 mm 0.00 in0.0 mm
03:40 PM 86.0°F30.0°C 67.4°F19.7°C 54% 1.2 mph ENE1.9 kmh ENE 1.2 mph1.9 kmh 26.72 in904.8 mb - 0.00 in0.0 mm 0.00 in0.0 mm
03:45 PM 84.0°F28.9°C 67.1°F19.5°C 57% 1.2 mph NNW1.9 kmh NNW 1.2 mph1.9 kmh 26.72 in904.8 mb - 0.00 in0.0 mm 0.00 in0.0 mm
03:50 PM 84.0°F28.9°C 66.1°F18.9°C 55% 1.2 mph W1.9 kmh W 2.3 mph3.7 kmh 26.72 in904.8 mb - 0.00 in0.0 mm 0.00 in0.0 mm
03:55 PM 85.0°F29.4°C 67.5°F19.7°C 56% 1.2 mph N1.9 kmh N 1.2 mph1.9 kmh 26.71 in904.5 mb - 0.00 in0.0 mm 0.00 in0.0 mm
04:00 PM 86.0°F30.0°C 66.3°F19.1°C 52% 1.2 mph NW1.9 kmh NW 2.3 mph3.7 kmh 26.72 in904.8 mb - 0.00 in0.0 mm 0.00 in0.0 mm
04:10 PM 83.0°F28.3°C 66.2°F19.0°C 57% Calm Calm -- 26.71 in904.5 mb - 0.00 in0.0 mm 0.00 in0.0 mm
04:15 PM 84.0°F28.9°C 66.6°F19.2°C 56% 1.2 mph NNW1.9 kmh NNW 1.2 mph1.9 kmh 26.71 in904.5 mb - 0.00 in0.0 mm 0.00 in0.0 mm
04:20 PM 84.0°F28.9°C 66.1°F18.9°C 55% Calm Calm -- 26.72 in904.8 mb - 0.00 in0.0 mm 0.00 in0.0 mm
04:25 PM 83.0°F28.3°C 66.7°F19.3°C 58% 1.2 mph WNW1.9 kmh WNW 1.2 mph1.9 kmh 26.71 in904.5 mb - 0.00 in0.0 mm 0.00 in0.0 mm
04:30 PM 82.0°F27.8°C 66.3°F19.1°C 59% Calm Calm -- 26.72 in904.8 mb - 0.00 in0.0 mm 0.00 in0.0 mm
04:35 PM 81.4°F27.4°C 67.1°F19.5°C 62% 1.2 mph NNE1.9 kmh NNE 1.2 mph1.9 kmh 26.71 in904.5 mb - 0.00 in0.0 mm 0.00 in0.0 mm
04:40 PM 81.0°F27.2°C 67.2°F19.6°C 63% 1.2 mph NNW1.9 kmh NNW 1.2 mph1.9 kmh 26.71 in904.5 mb - 0.00 in0.0 mm 0.00 in0.0 mm
04:45 PM 80.0°F26.7°C 65.3°F18.5°C 61% Calm Calm -- 26.72 in904.8 mb - 0.00 in0.0 mm 0.00 in0.0 mm
04:50 PM 80.0°F26.7°C 64.9°F18.3°C 60% 1.2 mph ESE1.9 kmh ESE 1.2 mph1.9 kmh 26.71 in904.5 mb - 0.00 in0.0 mm 0.00 in0.0 mm
04:55 PM 80.0°F26.7°C 65.8°F18.8°C 62% Calm Calm -- 26.71 in904.5 mb - 0.00 in0.0 mm 0.00 in0.0 mm
05:00 PM 80.0°F26.7°C 66.7°F19.3°C 64% 2.3 mph NW3.7 kmh NW 3.5 mph5.6 kmh 26.70 in904.2 mb - 0.00 in0.0 mm 0.00 in0.0 mm
05:10 PM 80.0°F26.7°C 67.2°F19.6°C 65% 1.2 mph ESE1.9 kmh ESE 1.2 mph1.9 kmh 26.71 in904.5 mb - 0.00 in0.0 mm 0.00 in0.0 mm
05:15 PM 80.0°F26.7°C 66.3°F19.1°C 63% 1.2 mph ESE1.9 kmh ESE 1.2 mph1.9 kmh 26.70 in904.2 mb - 0.00 in0.0 mm 0.00 in0.0 mm
05:20 PM 80.0°F26.7°C 67.2°F19.6°C 65% 1.2 mph ESE1.9 kmh ESE 1.2 mph1.9 kmh 26.70 in904.2 mb - 0.00 in0.0 mm 0.00 in0.0 mm
05:25 PM 80.0°F26.7°C 66.3°F19.1°C 63% 1.2 mph ESE1.9 kmh ESE 1.2 mph1.9 kmh 26.70 in904.2 mb - 0.00 in0.0 mm 0.00 in0.0 mm
05:30 PM 79.0°F26.1°C 64.4°F18.0°C 61% Calm Calm 1.2 mph1.9 kmh 26.71 in904.5 mb - 0.00 in0.0 mm 0.00 in0.0 mm
05:35 PM 79.0°F26.1°C 65.3°F18.5°C 63% 1.2 mph ESE1.9 kmh ESE 2.3 mph3.7 kmh 26.71 in904.5 mb - 0.00 in0.0 mm 0.00 in0.0 mm
05:40 PM 79.0°F26.1°C 64.9°F18.3°C 62% 1.2 mph ESE1.9 kmh ESE 2.3 mph3.7 kmh 26.71 in904.5 mb - 0.00 in0.0 mm 0.00 in0.0 mm
05:45 PM 79.0°F26.1°C 64.9°F18.3°C 62% 2.3 mph ESE3.7 kmh ESE 2.3 mph3.7 kmh 26.71 in904.5 mb - 0.00 in0.0 mm 0.00 in0.0 mm
05:50 PM 79.0°F26.1°C 64.4°F18.0°C 61% Calm Calm 1.2 mph1.9 kmh 26.71 in904.5 mb - 0.00 in0.0 mm 0.00 in0.0 mm
05:55 PM 79.0°F26.1°C 64.4°F18.0°C 61% Calm Calm 1.2 mph1.9 kmh 26.72 in904.8 mb - 0.00 in0.0 mm 0.00 in0.0 mm
06:00 PM 79.0°F26.1°C 65.3°F18.5°C 63% 1.2 mph ESE1.9 kmh ESE 1.2 mph1.9 kmh 26.71 in904.5 mb - 0.00 in0.0 mm 0.00 in0.0 mm
06:10 PM 79.0°F26.1°C 65.8°F18.8°C 64% Calm Calm 1.2 mph1.9 kmh 26.71 in904.5 mb - 0.00 in0.0 mm 0.00 in0.0 mm
06:15 PM 79.0°F26.1°C 65.8°F18.8°C 64% Calm Calm 2.3 mph3.7 kmh 26.71 in904.5 mb - 0.00 in0.0 mm 0.00 in0.0 mm
06:20 PM 79.0°F26.1°C 65.3°F18.5°C 63% 1.2 mph ESE1.9 kmh ESE 2.3 mph3.7 kmh 26.71 in904.5 mb - 0.00 in0.0 mm 0.00 in0.0 mm
06:25 PM 79.0°F26.1°C 65.8°F18.8°C 64% Calm Calm -- 26.72 in904.8 mb - 0.00 in0.0 mm 0.00 in0.0 mm
06:30 PM 79.0°F26.1°C 65.8°F18.8°C 64% Calm Calm -- 26.72 in904.8 mb - 0.00 in0.0 mm 0.00 in0.0 mm
06:35 PM 78.0°F25.6°C 64.4°F18.0°C 63% Calm Calm -- 26.72 in904.8 mb - 0.00 in0.0 mm 0.00 in0.0 mm
06:40 PM 78.0°F25.6°C 64.8°F18.2°C 64% Calm Calm -- 26.72 in904.8 mb - 0.00 in0.0 mm 0.00 in0.0 mm
06:45 PM 78.0°F25.6°C 65.3°F18.5°C 65% Calm Calm -- 26.72 in904.8 mb - 0.00 in0.0 mm 0.00 in0.0 mm
06:50 PM 78.0°F25.6°C 65.3°F18.5°C 65% Calm Calm -- 26.72 in904.8 mb - 0.00 in0.0 mm 0.00 in0.0 mm
06:55 PM 78.0°F25.6°C 65.3°F18.5°C 65% Calm Calm -- 26.71 in904.5 mb - 0.00 in0.0 mm 0.00 in0.0 mm
07:00 PM 78.0°F25.6°C 66.6°F19.2°C 68% Calm Calm -- 26.73 in905.2 mb - 0.00 in0.0 mm 0.00 in0.0 mm
07:10 PM 77.0°F25.0°C 64.8°F18.2°C 66% Calm Calm -- 26.72 in904.8 mb - 0.00 in0.0 mm 0.00 in0.0 mm
07:15 PM 77.0°F25.0°C 66.0°F18.9°C 69% Calm Calm -- 26.73 in905.2 mb - 0.00 in0.0 mm 0.00 in0.0 mm
07:20 PM 77.0°F25.0°C 65.6°F18.7°C 68% Calm Calm -- 26.73 in905.2 mb - 0.00 in0.0 mm 0.00 in0.0 mm
07:25 PM 77.0°F25.0°C 65.2°F18.4°C 67% Calm Calm -- 26.73 in905.2 mb - 0.00 in0.0 mm 0.00 in0.0 mm
07:30 PM 77.0°F25.0°C 65.6°F18.7°C 68% Calm Calm -- 26.73 in905.2 mb - 0.00 in0.0 mm 0.00 in0.0 mm
07:35 PM 76.0°F24.4°C 65.9°F18.8°C 71% Calm Calm -- 26.73 in905.2 mb - 0.00 in0.0 mm 0.00 in0.0 mm
07:40 PM 76.0°F24.4°C 65.9°F18.8°C 71% Calm Calm -- 26.74 in905.5 mb - 0.00 in0.0 mm 0.00 in0.0 mm
07:45 PM 75.0°F23.9°C 64.5°F18.1°C 70% Calm Calm -- 26.74 in905.5 mb - 0.00 in0.0 mm 0.00 in0.0 mm
07:50 PM 75.0°F23.9°C 65.0°F18.3°C 71% Calm Calm -- 26.74 in905.5 mb - 0.00 in0.0 mm 0.00 in0.0 mm
07:55 PM 75.0°F23.9°C 65.4°F18.6°C 72% Calm Calm -- 26.75 in905.9 mb - 0.00 in0.0 mm 0.00 in0.0 mm
08:00 PM 75.0°F23.9°C 65.8°F18.8°C 73% Calm Calm -- 26.74 in905.5 mb - 0.00 in0.0 mm 0.00 in0.0 mm
08:10 PM 74.0°F23.3°C 64.8°F18.2°C 73% Calm Calm -- 26.75 in905.9 mb - 0.00 in0.0 mm 0.00 in0.0 mm
08:15 PM 74.0°F23.3°C 65.2°F18.4°C 74% Calm Calm -- 26.75 in905.9 mb - 0.00 in0.0 mm 0.00 in0.0 mm
08:20 PM 73.3°F22.9°C 64.1°F17.8°C 73% Calm Calm -- 26.75 in905.9 mb - 0.00 in0.0 mm 0.00 in0.0 mm
08:25 PM 73.0°F22.8°C 63.8°F17.7°C 73% Calm Calm -- 26.75 in905.9 mb - 0.00 in0.0 mm 0.00 in0.0 mm
08:30 PM 73.0°F22.8°C 64.6°F18.1°C 75% Calm Calm -- 26.75 in905.9 mb - 0.00 in0.0 mm 0.00 in0.0 mm
08:35 PM 73.0°F22.8°C 65.0°F18.3°C 76% Calm Calm -- 26.75 in905.9 mb - 0.00 in0.0 mm 0.00 in0.0 mm
08:40 PM 73.0°F22.8°C 64.6°F18.1°C 75% Calm Calm -- 26.75 in905.9 mb - 0.00 in0.0 mm 0.00 in0.0 mm
08:45 PM 73.0°F22.8°C 65.0°F18.3°C 76% Calm Calm -- 26.75 in905.9 mb - 0.00 in0.0 mm 0.00 in0.0 mm
08:50 PM 72.0°F22.2°C 64.4°F18.0°C 77% Calm Calm -- 26.76 in906.2 mb - 0.00 in0.0 mm 0.00 in0.0 mm
08:55 PM 72.0°F22.2°C 64.4°F18.0°C 77% Calm Calm -- 26.76 in906.2 mb - 0.00 in0.0 mm 0.00 in0.0 mm
09:00 PM 72.0°F22.2°C 64.0°F17.8°C 76% Calm Calm -- 26.75 in905.9 mb - 0.00 in0.0 mm 0.00 in0.0 mm
09:10 PM 72.0°F22.2°C 64.8°F18.2°C 78% Calm Calm -- 26.75 in905.9 mb - 0.00 in0.0 mm 0.00 in0.0 mm
09:15 PM 72.0°F22.2°C 65.1°F18.4°C 79% Calm Calm -- 26.76 in906.2 mb - 0.00 in0.0 mm 0.00 in0.0 mm
09:20 PM 71.0°F21.7°C 64.2°F17.9°C 79% Calm Calm -- 26.76 in906.2 mb - 0.00 in0.0 mm 0.00 in0.0 mm
09:25 PM 71.0°F21.7°C 63.8°F17.7°C 78% Calm Calm -- 26.75 in905.9 mb - 0.00 in0.0 mm 0.00 in0.0 mm
09:30 PM 71.0°F21.7°C 63.8°F17.7°C 78% Calm Calm -- 26.75 in905.9 mb - 0.00 in0.0 mm 0.00 in0.0 mm
09:35 PM 71.0°F21.7°C 64.2°F17.9°C 79% Calm Calm -- 26.75 in905.9 mb - 0.00 in0.0 mm 0.00 in0.0 mm
09:40 PM 71.0°F21.7°C 64.2°F17.9°C 79% Calm Calm -- 26.76 in906.2 mb - 0.00 in0.0 mm 0.00 in0.0 mm
09:45 PM 70.0°F21.1°C 63.5°F17.5°C 80% Calm Calm -- 26.76 in906.2 mb - 0.00 in0.0 mm 0.00 in0.0 mm
09:50 PM 70.0°F21.1°C 63.5°F17.5°C 80% Calm Calm -- 26.76 in906.2 mb - 0.00 in0.0 mm 0.00 in0.0 mm
09:55 PM 70.0°F21.1°C 63.2°F17.3°C 79% Calm Calm -- 26.76 in906.2 mb - 0.00 in0.0 mm 0.00 in0.0 mm
10:00 PM 70.0°F21.1°C 63.2°F17.3°C 79% Calm Calm -- 26.76 in906.2 mb - 0.00 in0.0 mm 0.00 in0.0 mm
10:10 PM 70.0°F21.1°C 63.5°F17.5°C 80% Calm Calm -- 26.77 in906.5 mb - 0.00 in0.0 mm 0.00 in0.0 mm
10:15 PM 69.0°F20.6°C 62.9°F17.2°C 81% Calm Calm -- 26.75 in905.9 mb - 0.00 in0.0 mm 0.00 in0.0 mm
10:20 PM 69.0°F20.6°C 62.6°F17.0°C 80% Calm Calm -- 26.76 in906.2 mb - 0.00 in0.0 mm 0.00 in0.0 mm
10:25 PM 70.0°F21.1°C 63.9°F17.7°C 81% Calm Calm -- 26.76 in906.2 mb - 0.00 in0.0 mm 0.00 in0.0 mm
10:30 PM 69.0°F20.6°C 62.6°F17.0°C 80% Calm Calm -- 26.76 in906.2 mb - 0.00 in0.0 mm 0.00 in0.0 mm
10:35 PM 69.0°F20.6°C 62.9°F17.2°C 81% Calm Calm -- 26.76 in906.2 mb - 0.00 in0.0 mm 0.00 in0.0 mm
10:40 PM 69.0°F20.6°C 63.6°F17.6°C 83% Calm Calm -- 26.77 in906.5 mb - 0.00 in0.0 mm 0.00 in0.0 mm
10:45 PM 69.0°F20.6°C 63.6°F17.6°C 83% Calm Calm -- 26.77 in906.5 mb - 0.00 in0.0 mm 0.00 in0.0 mm
10:50 PM 69.0°F20.6°C 63.6°F17.6°C 83% Calm Calm -- 26.76 in906.2 mb - 0.00 in0.0 mm 0.00 in0.0 mm
10:55 PM 69.0°F20.6°C 63.3°F17.4°C 82% Calm Calm -- 26.76 in906.2 mb - 0.00 in0.0 mm 0.00 in0.0 mm
11:00 PM 68.0°F20.0°C 62.6°F17.0°C 83% Calm Calm -- 26.76 in906.2 mb - 0.00 in0.0 mm 0.00 in0.0 mm
11:10 PM 68.0°F20.0°C 63.0°F17.2°C 84% Calm Calm -- 26.77 in906.5 mb - 0.00 in0.0 mm 0.00 in0.0 mm
11:15 PM 68.0°F20.0°C 62.6°F17.0°C 83% Calm Calm -- 26.76 in906.2 mb - 0.00 in0.0 mm 0.00 in0.0 mm
11:20 PM 68.0°F20.0°C 63.0°F17.2°C 84% Calm Calm -- 26.76 in906.2 mb - 0.00 in0.0 mm 0.00 in0.0 mm
11:25 PM 67.0°F19.4°C 62.3°F16.8°C 85% Calm Calm -- 26.76 in906.2 mb - 0.00 in0.0 mm 0.00 in0.0 mm
11:30 PM 67.0°F19.4°C 62.7°F17.1°C 86% Calm Calm -- 26.76 in906.2 mb - 0.00 in0.0 mm 0.00 in0.0 mm
11:35 PM 67.0°F19.4°C 63.3°F17.4°C 88% Calm Calm -- 26.76 in906.2 mb - 0.00 in0.0 mm 0.00 in0.0 mm
11:40 PM 67.0°F19.4°C 63.0°F17.2°C 87% Calm Calm -- 26.77 in906.5 mb - 0.00 in0.0 mm 0.00 in0.0 mm
11:45 PM 67.0°F19.4°C 63.0°F17.2°C 87% Calm Calm -- 26.76 in906.2 mb - 0.00 in0.0 mm 0.00 in0.0 mm
11:50 PM 67.0°F19.4°C 63.0°F17.2°C 87% Calm Calm -- 26.77 in906.5 mb - 0.00 in0.0 mm 0.00 in0.0 mm
11:55 PM 67.0°F19.4°C 63.0°F17.2°C 87% Calm Calm -- 26.77 in906.5 mb - 0.00 in0.0 mm 0.00 in0.0 mm